OITM  Sahand Airport

Add Bookmark

Maragheh, Iran

Status IATA
Operational ACP
Latitude Longitude
37° 20' 52" N 46° 7' 40" E
37.348000 46.127899
Local (DST + 5) UTC (GMT + 4)
Jul 26, 2014 09:41 Jul 26, 2014 17:11
Sunrise-Sunset Local UTC
Begin Civil Twilight 05:54 01:24
Sunrise 06:23 01:53
Sunset 08:40 16:10
End Civil Twilight 09:09 16:39

Current Weather

METAR Observed VFR
OITM 261600Z 23006KT 9999 SCT040 33/09 Q1009 Sat, Jul 26, 2014 @ 16:00 UTC
(1 Hour, 11 Minutes ago)
Visual Flight Rules

Decoded METAR

Wind Visibility Clouds Conditions
230° at 6 knots (11 kph) 10 km or more
  • Scattered at 4,000' AGL
  • No significant weather
Temperatures Readings Precipitation
Current Temp 33°C (91°F)
Dewpoint 9°C (48°F)
Humidity 23%
Altimeter 29.79"Hg
Sea Level Pressure 1009mb
Field Elevation 4396.33'
None Recorded

Additional weather within a 92.6km radius of OITM

Map ICAO Location
OITT 87.8km N (006°)

24 Hour Weather History

Loading
-

24 Hour Weather Graphs

Loading
-

CheckWX.com is intended as a tool to help pilots better visualize weather data. It is not intended as a substitute for an official weather briefing obtained from a Flight Service Station. CheckWX.com does not meet the FAA requirements for an official pre-flight weather briefing. Therefore, it's important that pilots still call and obtain an official FSS pre-flight weather briefing.